Time;durP1;ratioP1;P1;durP2;ratioP2;P2;SDS_P1;SDS_P2;PMS_P1;PMS_P2;Temp;Humidity;BMP_temperature;BMP_pressure;BME280_temperature;BME280_humidity;BME280_pressure;Samples;Min_cycle;Max_cycle;Signal;HPM_P1;HPM_P2
2022/06/11 00:02:21;;;;;;;;;8.50;6.25;;;;;21.53;58.26;101922.84;5069280;28;45641;-60
2022/06/11 00:04:47;;;;;;;;;5.75;5.00;;;;;21.52;58.09;101929.19;5070430;28;46428;-59
2022/06/11 00:07:21;;;;;;;;;7.50;5.25;;;;;21.53;58.34;101932.72;5069828;28;45393;-56
2022/06/11 00:09:47;;;;;;;;;4.75;4.75;;;;;21.49;58.29;101926.81;5068945;28;45431;-55
2022/06/11 00:12:13;;;;;;;;;3.75;3.75;;;;;21.46;58.29;101922.53;5067002;28;45394;-59
2022/06/11 00:14:41;;;;;;;;;4.00;3.75;;;;;21.44;58.60;101919.13;5068981;28;45558;-59
2022/06/11 00:17:09;;;;;;;;;6.00;3.25;;;;;21.43;58.37;101919.28;5071696;28;45556;-56
2022/06/11 00:19:35;;;;;;;;;3.00;3.00;;;;;21.42;58.52;101918.44;5069439;28;45485;-58
2022/06/11 00:22:01;;;;;;;;;4.00;4.00;;;;;21.40;58.72;101924.88;5069602;28;45449;-56
2022/06/11 00:24:28;;;;;;;;;3.25;3.25;;;;;21.41;58.62;101924.78;5068803;28;45606;-57
2022/06/11 00:26:55;;;;;;;;;5.75;4.00;;;;;21.40;58.42;101912.34;5067103;28;45512;-56
2022/06/11 00:29:23;;;;;;;;;4.25;4.25;;;;;21.42;59.08;101918.44;5068936;27;45815;-55
2022/06/11 00:31:50;;;;;;;;;4.25;4.25;;;;;21.42;59.13;101922.94;5067380;28;45542;-57
2022/06/11 00:34:16;;;;;;;;;3.00;2.75;;;;;21.40;59.00;101919.53;5068989;28;45461;-56
2022/06/11 00:36:43;;;;;;;;;6.50;5.00;;;;;21.39;59.01;101928.56;5068284;28;45481;-56
2022/06/11 00:39:11;;;;;;;;;4.50;3.50;;;;;21.38;58.92;101922.34;5068211;28;45468;-55
2022/06/11 00:41:41;;;;;;;;;5.50;4.00;;;;;21.37;59.14;101920.66;5067495;28;45602;-55
2022/06/11 00:44:08;;;;;;;;;4.25;3.75;;;;;21.36;58.92;101918.97;5069896;28;46146;-51
2022/06/11 00:46:36;;;;;;;;;2.75;2.75;;;;;21.35;58.94;101916.41;5070732;28;45817;-56
2022/06/11 00:49:10;;;;;;;;;5.25;5.00;;;;;21.34;59.01;101917.41;5068794;28;45525;-55
2022/06/11 00:51:36;;;;;;;;;3.50;3.50;;;;;21.32;59.19;101913.97;5066433;28;45754;-56
2022/06/11 00:54:08;;;;;;;;;4.25;4.25;;;;;21.30;59.07;101914.13;5066776;28;45728;-57
2022/06/11 00:56:39;;;;;;;;;3.25;3.25;;;;;21.30;59.20;101914.13;5068444;28;45659;-57
2022/06/11 00:59:09;;;;;;;;;3.75;3.75;;;;;21.29;59.04;101912.41;5068924;28;45469;-58
2022/06/11 01:01:35;;;;;;;;;8.00;5.00;;;;;21.27;59.49;101921.56;5069249;28;45802;-56
2022/06/11 01:04:22;;;;;;;;;3.00;3.00;;;;;21.26;59.37;101912.66;5066012;28;45564;-55
2022/06/11 01:06:53;;;;;;;;;5.50;3.50;;;;;21.26;59.15;101915.34;5069336;28;45718;-58
2022/06/11 01:09:26;;;;;;;;;6.50;5.00;;;;;21.25;59.22;101921.69;5069331;27;45758;-57
2022/06/11 01:12:05;;;;;;;;;7.75;4.75;;;;;21.22;59.52;101919.25;5067534;28;45396;-56
2022/06/11 01:14:48;;;;;;;;;4.50;3.25;;;;;21.20;59.18;101913.19;5065088;28;45522;-56
2022/06/11 01:17:29;;;;;;;;;3.25;3.25;;;;;21.17;59.49;101916.97;5064849;28;45359;-57
2022/06/11 01:20:05;;;;;;;;;4.50;4.50;;;;;21.15;59.45;101918.91;5067633;27;45433;-55
2022/06/11 01:23:08;;;;;;;;;5.50;3.00;;;;;21.12;59.68;101918.34;5062700;28;45379;-56
2022/06/11 01:25:52;;;;;;;;;5.00;4.50;;;;;21.09;59.37;101913.22;5067156;28;45609;-55
2022/06/11 01:28:42;;;;;;;;;4.00;4.00;;;;;21.07;59.57;101909.84;5065511;28;45596;-56
2022/06/11 01:31:37;;;;;;;;;3.50;3.50;;;;;21.06;59.41;101917.03;5061221;28;45157;-56
2022/06/11 01:34:27;;;;;;;;;6.00;4.25;;;;;21.05;59.78;101909.97;5061233;28;45383;-56
2022/06/11 01:37:01;;;;;;;;;5.75;5.75;;;;;21.04;59.78;101912.78;5060852;28;46077;-55
2022/06/11 01:40:05;;;;;;;;;11.25;9.00;;;;;21.02;59.75;101914.75;5042427;28;45779;-56
2022/06/11 01:42:39;;;;;;;;;13.50;12.00;;;;;20.98;59.69;101914.16;5060255;28;45359;-56
2022/06/11 01:45:16;;;;;;;;;9.75;8.75;;;;;20.97;59.69;101912.47;5061193;28;45317;-55
2022/06/11 01:47:43;;;;;;;;;12.50;11.00;;;;;20.95;59.77;101914.44;5060588;28;45449;-56
2022/06/11 01:50:12;;;;;;;;;11.50;10.25;;;;;20.94;59.76;101914.56;5060881;28;45342;-56
2022/06/11 01:52:59;;;;;;;;;11.00;9.00;;;;;20.92;59.71;101918.19;5060814;28;45198;-54
2022/06/11 01:55:27;;;;;;;;;8.75;5.00;;;;;20.90;59.89;101917.47;5060943;28;45237;-54
2022/06/11 01:58:06;;;;;;;;;7.00;7.00;;;;;20.87;60.17;101914.22;5060404;28;46128;-56
2022/06/11 02:00:35;;;;;;;;;7.25;6.75;;;;;20.86;59.97;101920.56;5060763;28;45374;-56
2022/06/11 02:03:28;;;;;;;;;6.00;6.00;;;;;20.83;60.28;101924.31;5060876;28;45431;-56
2022/06/11 02:05:55;;;;;;;;;7.00;5.25;;;;;20.80;60.14;101932.63;5060828;28;45268;-55
2022/06/11 02:08:39;;;;;;;;;8.00;6.50;;;;;20.77;59.98;101934.69;5060582;28;45346;-56
2022/06/11 02:11:14;;;;;;;;;6.75;5.50;;;;;20.73;60.36;101933.25;5060181;28;45552;-56
2022/06/11 02:13:49;;;;;;;;;6.00;6.00;;;;;20.71;60.38;101927.19;5060707;28;45432;-56
2022/06/11 02:16:25;;;;;;;;;7.25;5.50;;;;;20.71;60.56;101925.38;5060785;28;45244;-56
2022/06/11 02:18:53;;;;;;;;;4.50;4.50;;;;;20.70;60.68;101928.19;5061533;28;46283;-56
2022/06/11 02:21:26;;;;;;;;;8.00;5.75;;;;;20.70;60.52;101925.50;5069845;28;45400;-56
2022/06/11 02:24:00;;;;;;;;;6.00;5.75;;;;;20.69;60.48;101929.97;5064111;28;45406;-55
2022/06/11 02:26:29;;;;;;;;;10.00;8.75;;;;;20.68;60.57;101930.97;5063580;28;45394;-56
2022/06/11 02:28:58;;;;;;;;;8.00;8.00;;;;;20.66;60.52;101929.41;5063856;28;45428;-56
2022/06/11 02:31:29;;;;;;;;;6.00;6.00;;;;;20.63;60.58;101928.69;5063846;28;45164;-56
2022/06/11 02:33:54;;;;;;;;;4.50;4.50;;;;;20.62;60.91;101926.13;5063922;28;45307;-56
2022/06/11 02:36:20;;;;;;;;;5.75;5.50;;;;;20.61;60.87;101929.75;5063800;28;45299;-57
2022/06/11 02:38:46;;;;;;;;;6.00;4.00;;;;;20.60;60.98;101925.38;5063812;28;46081;-56
2022/06/11 02:41:19;;;;;;;;;6.00;4.50;;;;;20.60;61.18;101936.94;5063494;28;45333;-56
2022/06/11 02:43:45;;;;;;;;;5.25;5.25;;;;;20.57;60.76;101936.38;5063899;28;45365;-55
2022/06/11 02:48:57;;;;;;;;;5.00;5.00;;;;;20.50;61.02;101930.66;5063540;28;45907;-55
2022/06/11 02:51:25;;;;;;;;;5.50;4.50;;;;;20.48;61.44;101937.97;5063476;28;45255;-56
2022/06/11 02:53:50;;;;;;;;;6.00;6.00;;;;;20.46;61.14;101934.59;5063834;28;45177;-55
2022/06/11 02:56:16;;;;;;;;;6.50;5.00;;;;;20.47;61.32;101943.47;5063485;28;45258;-54
2022/06/11 02:58:42;;;;;;;;;6.25;6.00;;;;;20.44;61.07;101944.53;5063552;28;45402;-55
2022/06/11 03:01:08;;;;;;;;;6.00;6.00;;;;;20.43;61.51;101941.97;5063565;28;45435;-55
2022/06/11 03:03:34;;;;;;;;;6.25;6.25;;;;;20.43;61.65;101940.13;5063507;28;45377;-55
2022/06/11 03:05:59;;;;;;;;;8.50;6.00;;;;;20.38;61.03;101934.31;5063685;28;45346;-56
2022/06/11 03:08:26;;;;;;;;;5.75;5.75;;;;;20.33;61.40;101941.88;5063397;28;45336;-55
2022/06/11 03:10:54;;;;;;;;;7.25;6.50;;;;;20.30;61.42;101944.78;5062968;28;45255;-55
2022/06/11 03:13:28;;;;;;;;;4.50;4.50;;;;;20.32;61.59;101948.19;5063771;28;45449;-54
2022/06/11 03:15:54;;;;;;;;;6.75;6.75;;;;;20.29;61.54;101953.78;5063380;28;45164;-55
2022/06/11 03:18:20;;;;;;;;;6.00;5.50;;;;;20.26;61.61;101954.03;5062936;28;46365;-55
2022/06/11 03:20:46;;;;;;;;;7.00;6.00;;;;;20.23;61.46;101954.31;5068696;28;45494;-55
2022/06/11 03:23:12;;;;;;;;;7.00;5.25;;;;;20.23;61.61;101957.81;5063285;28;45380;-56
2022/06/11 03:25:38;;;;;;;;;6.25;6.25;;;;;20.23;61.85;101948.94;5061485;28;45609;-55
2022/06/11 03:28:12;;;;;;;;;6.75;6.50;;;;;20.23;61.88;101951.63;5060580;28;45529;-55
2022/06/11 03:30:38;;;;;;;;;8.00;6.50;;;;;20.24;61.67;101954.16;5062582;28;45449;-56
2022/06/11 03:33:05;;;;;;;;;7.50;7.00;;;;;20.26;61.82;101957.56;5063290;28;45251;-54
2022/06/11 03:35:30;;;;;;;;;7.75;7.00;;;;;20.25;61.84;101955.03;5063346;28;45548;-55
2022/06/11 03:37:56;;;;;;;;;6.50;6.00;;;;;20.26;62.19;101956.72;5061415;28;46679;-56
2022/06/11 03:40:22;;;;;;;;;6.00;5.00;;;;;20.26;62.33;101965.59;5062526;28;45346;-55
2022/06/11 03:42:48;;;;;;;;;7.50;6.00;;;;;20.26;61.90;101967.41;5062812;28;45287;-55
2022/06/11 03:45:14;;;;;;;;;8.50;6.00;;;;;20.22;62.16;101966.84;5063033;28;45306;-55
2022/06/11 03:47:40;;;;;;;;;6.00;5.75;;;;;20.20;62.30;101966.06;5062844;28;45224;-56
2022/06/11 03:50:16;;;;;;;;;5.75;5.50;;;;;20.20;61.96;101981.28;5062673;28;45297;-56
2022/06/11 03:52:41;;;;;;;;;6.75;6.00;;;;;20.18;62.33;101980.56;5062976;28;45435;-56
2022/06/11 03:55:08;;;;;;;;;6.50;6.50;;;;;20.18;62.53;101984.09;5062754;28;45353;-56
2022/06/11 03:57:34;;;;;;;;;4.25;4.00;;;;;20.16;62.20;101991.41;5062400;28;45330;-55
2022/06/11 04:00:02;;;;;;;;;4.50;4.50;;;;;20.15;62.08;101991.53;5062372;28;45376;-55
2022/06/11 04:02:28;;;;;;;;;6.25;5.50;;;;;20.13;62.52;101991.63;5062616;28;45288;-56
2022/06/11 04:04:53;;;;;;;;;7.25;6.75;;;;;20.12;62.56;102002.44;5062626;28;45505;-54
2022/06/11 04:07:20;;;;;;;;;6.50;6.50;;;;;20.10;62.27;102002.59;5060872;28;45462;-55
2022/06/11 04:09:46;;;;;;;;;6.00;6.00;;;;;20.11;62.45;102006.09;5062397;28;45161;-56
2022/06/11 04:12:15;;;;;;;;;12.00;7.00;;;;;20.08;62.81;102009.88;5062178;28;45689;-55
2022/06/11 04:14:44;;;;;;;;;6.75;6.00;;;;;20.05;62.72;102018.13;5062407;28;45568;-55
2022/06/11 04:17:20;;;;;;;;;6.25;5.50;;;;;20.05;62.69;102013.63;5062146;28;45927;-56
2022/06/11 04:19:48;;;;;;;;;8.75;6.00;;;;;20.03;62.89;102020.09;5067108;28;45417;-56
2022/06/11 04:22:15;;;;;;;;;11.00;8.25;;;;;20.01;62.75;102022.03;5062665;28;45409;-55
2022/06/11 04:24:41;;;;;;;;;9.50;9.00;;;;;20.00;63.02;102023.88;5062456;28;45355;-56
2022/06/11 04:27:10;;;;;;;;;7.75;6.75;;;;;19.99;62.79;102024.84;5061884;28;46000;-55
2022/06/11 04:29:39;;;;;;;;;7.00;7.00;;;;;19.96;62.94;102030.41;5062021;28;45263;-55
2022/06/11 04:32:08;;;;;;;;;7.75;6.25;;;;;19.93;62.80;102024.47;5062251;28;45500;-54
2022/06/11 04:34:34;;;;;;;;;7.25;6.75;;;;;19.95;63.17;102031.38;5062146;28;45496;-56
2022/06/11 04:37:01;;;;;;;;;8.25;6.75;;;;;19.97;63.35;102032.09;5062102;28;45248;-55
2022/06/11 04:39:30;;;;;;;;;7.00;7.00;;;;;19.99;63.28;102029.34;5061919;28;45481;-55
2022/06/11 04:41:56;;;;;;;;;7.25;7.25;;;;;19.97;63.03;102033.94;5061047;28;45385;-55
2022/06/11 04:44:23;;;;;;;;;7.00;5.75;;;;;19.97;63.18;102034.78;5060791;28;45546;-55
2022/06/11 04:46:49;;;;;;;;;9.75;8.25;;;;;19.99;63.06;102040.88;5061805;28;46279;-56
2022/06/11 04:49:15;;;;;;;;;6.00;6.00;;;;;20.04;63.41;102045.84;5061542;28;45298;-55
2022/06/11 04:51:41;;;;;;;;;7.50;7.50;;;;;20.06;63.79;102046.59;5061846;28;45274;-56
2022/06/11 04:54:07;;;;;;;;;6.50;6.50;;;;;20.01;63.44;102040.75;5061921;28;45346;-55
2022/06/11 04:56:33;;;;;;;;;8.00;5.50;;;;;20.00;63.53;102041.75;5061258;28;45541;-54
2022/06/11 04:58:59;;;;;;;;;7.25;7.25;;;;;19.98;63.65;102047.19;5060250;28;45690;-55
2022/06/11 05:01:27;;;;;;;;;6.50;6.50;;;;;19.96;63.96;102041.09;5061920;28;45386;-56
2022/06/11 05:03:53;;;;;;;;;9.75;6.50;;;;;19.93;63.55;102044.03;5061561;28;45235;-56
2022/06/11 05:06:22;;;;;;;;;10.75;8.75;;;;;19.93;64.15;102046.72;5061492;28;45331;-55
2022/06/11 05:08:47;;;;;;;;;9.00;7.00;;;;;19.92;63.72;102039.66;5061282;28;45264;-56
2022/06/11 05:11:13;;;;;;;;;6.00;6.00;;;;;19.91;63.79;102047.81;5061232;28;45359;-55
2022/06/11 05:13:39;;;;;;;;;7.50;7.00;;;;;19.91;64.31;102043.31;5061615;28;45545;-56
2022/06/11 05:16:06;;;;;;;;;8.25;6.75;;;;;19.90;63.93;102046.94;5061145;28;45402;-56
2022/06/11 05:18:31;;;;;;;;;6.50;6.50;;;;;19.87;63.92;102046.34;5061376;28;45248;-55
2022/06/11 05:20:57;;;;;;;;;7.25;7.25;;;;;19.85;63.87;102043.78;5066246;28;45218;-56
2022/06/11 05:23:22;;;;;;;;;9.25;7.00;;;;;19.86;64.38;102047.31;5061286;28;45220;-56
2022/06/11 05:25:49;;;;;;;;;9.00;6.00;;;;;19.93;64.09;102056.56;5060987;28;45666;-55
2022/06/11 05:28:23;;;;;;;;;9.00;8.25;;;;;19.99;64.76;102051.59;5061391;28;45227;-55
2022/06/11 05:30:49;;;;;;;;;8.25;8.25;;;;;20.03;64.37;102049.50;5061368;28;45322;-56
2022/06/11 05:33:16;;;;;;;;;7.25;7.25;;;;;20.04;64.47;102051.22;5061233;28;45316;-55
2022/06/11 05:35:42;;;;;;;;;9.75;7.75;;;;;20.13;64.50;102044.28;5061223;28;46318;-54
2022/06/11 05:38:11;;;;;;;;;10.75;6.50;;;;;20.21;64.63;102048.03;5061094;28;45360;-55
2022/06/11 05:40:41;;;;;;;;;6.00;6.00;;;;;20.27;64.69;102039.53;5060772;28;45237;-56
2022/06/11 05:43:07;;;;;;;;;11.00;9.00;;;;;20.33;64.68;102041.75;5061128;28;45359;-55
2022/06/11 05:45:54;;;;;;;;;7.00;7.00;;;;;20.40;65.01;102046.59;5060828;28;45387;-55
2022/06/11 05:48:26;;;;;;;;;7.00;5.25;;;;;20.45;64.94;102047.09;5060943;28;45369;-55
2022/06/11 05:50:55;;;;;;;;;8.25;6.00;;;;;20.51;64.56;102049.28;5060918;28;45276;-55
2022/06/11 05:53:24;;;;;;;;;6.25;5.25;;;;;20.52;64.76;102049.16;5060984;28;45343;-56
2022/06/11 05:55:50;;;;;;;;;7.00;7.00;;;;;20.54;64.62;102051.75;5058748;28;45731;-56
2022/06/11 05:58:21;;;;;;;;;6.00;6.00;;;;;20.53;64.56;102050.88;5060867;28;45327;-55
2022/06/11 06:00:48;;;;;;;;;5.25;5.25;;;;;20.57;64.46;102051.47;5060754;28;45577;-54
2022/06/11 06:03:14;;;;;;;;;10.25;7.50;;;;;20.59;64.61;102058.41;5059435;28;45321;-55
2022/06/11 06:05:39;;;;;;;;;11.00;7.75;;;;;20.59;64.32;102058.41;5060448;28;45322;-55
2022/06/11 06:08:06;;;;;;;;;5.75;4.50;;;;;20.63;64.65;102059.03;5060399;28;45371;-54
2022/06/11 06:10:32;;;;;;;;;7.75;7.75;;;;;20.66;64.75;102057.91;5059558;28;45402;-55
2022/06/11 06:12:58;;;;;;;;;7.25;7.25;;;;;20.64;64.23;102068.75;5060732;28;45422;-55
2022/06/11 06:15:26;;;;;;;;;6.75;6.75;;;;;20.65;64.33;102059.75;5060564;28;45341;-54
2022/06/11 06:17:52;;;;;;;;;6.25;6.25;;;;;20.63;64.31;102061.72;5060794;28;45303;-55
2022/06/11 06:20:21;;;;;;;;;9.75;7.00;;;;;20.61;64.43;102059.13;5066435;28;45318;-55
2022/06/11 06:22:48;;;;;;;;;7.00;7.00;;;;;20.64;64.28;102058.06;5060715;28;45658;-60
2022/06/11 06:25:20;;;;;;;;;8.50;8.50;;;;;20.66;64.27;102056.09;5058679;28;45391;-55
2022/06/11 06:27:46;;;;;;;;;7.25;6.50;;;;;20.68;64.56;102054.13;5059753;28;45216;-55
2022/06/11 06:30:12;;;;;;;;;5.75;5.00;;;;;20.73;64.32;102061.81;5060142;28;45449;-54
2022/06/11 06:32:38;;;;;;;;;7.00;6.75;;;;;20.76;64.61;102064.22;5058802;28;45438;-56
2022/06/11 06:35:04;;;;;;;;;9.00;6.50;;;;;20.80;64.47;102063.00;5057744;28;45762;-55
2022/06/11 06:37:31;;;;;;;;;7.25;6.00;;;;;20.83;64.47;102052.03;5057995;28;45371;-55
2022/06/11 06:39:57;;;;;;;;;8.50;7.00;;;;;20.89;64.20;102059.56;5059329;28;45445;-54
2022/06/11 06:42:22;;;;;;;;;7.50;5.75;;;;;20.88;64.32;102053.38;5060083;28;45326;-55
2022/06/11 06:44:48;;;;;;;;;7.75;6.75;;;;;20.91;64.01;102053.09;5060022;28;45231;-56
2022/06/11 06:47:13;;;;;;;;;5.75;5.75;;;;;20.95;64.23;102064.44;5060323;28;45161;-55
2022/06/11 06:49:39;;;;;;;;;7.00;6.25;;;;;20.98;64.20;102060.66;5060049;28;45216;-55
2022/06/11 06:52:04;;;;;;;;;8.00;7.00;;;;;21.02;64.10;102054.91;5060489;28;45347;-54
2022/06/11 06:54:30;;;;;;;;;7.50;5.75;;;;;21.04;64.15;102066.34;5059956;28;45325;-54
2022/06/11 06:56:55;;;;;;;;;9.00;6.00;;;;;21.09;64.32;102068.63;5059695;28;45642;-55
2022/06/11 06:59:22;;;;;;;;;4.50;4.00;;;;;21.12;64.00;102065.72;5064108;28;46026;-56
2022/06/11 07:01:48;;;;;;;;;6.00;4.50;;;;;21.15;63.99;102070.81;5059792;28;45463;-55
2022/06/11 07:04:13;;;;;;;;;5.25;4.50;;;;;21.18;63.75;102074.09;5059755;28;45539;-55
2022/06/11 07:06:40;;;;;;;;;10.50;4.75;;;;;21.16;63.84;102069.84;5063597;28;45355;-55
2022/06/11 07:09:06;;;;;;;;;5.00;5.00;;;;;21.15;63.69;102071.66;5063292;28;45327;-56
2022/06/11 07:11:32;;;;;;;;;7.25;6.50;;;;;21.18;63.68;102078.63;5062828;28;45214;-52
2022/06/11 07:13:58;;;;;;;;;5.75;4.50;;;;;21.19;63.80;102077.63;5064674;28;45728;-54
2022/06/11 07:16:31;;;;;;;;;6.50;4.75;;;;;21.17;63.62;102072.41;5063244;28;45319;-56
2022/06/11 07:19:02;;;;;;;;;4.25;3.75;;;;;21.16;63.34;102072.50;5063107;28;45204;-55
2022/06/11 07:21:45;;;;;;;;;6.25;5.00;;;;;21.14;63.15;102067.28;5059355;28;45588;-52
2022/06/11 07:24:16;;;;;;;;;5.75;4.75;;;;;21.16;63.20;102075.19;5062550;28;45418;-57
2022/06/11 07:26:48;;;;;;;;;3.00;3.00;;;;;21.24;63.36;102071.88;5053391;28;45379;-55
2022/06/11 07:29:20;;;;;;;;;8.25;6.50;;;;;21.33;63.26;102072.03;5062211;28;45580;-58
2022/06/11 07:31:49;;;;;;;;;6.25;5.75;;;;;21.34;62.96;102071.03;5065633;28;45280;-58
2022/06/11 07:34:16;;;;;;;;;7.50;5.25;;;;;21.38;63.05;102071.63;5070591;28;45368;-58
2022/06/11 07:36:41;;;;;;;;;6.00;4.50;;;;;21.40;62.81;102075.00;5070812;28;45252;-59
2022/06/11 07:39:07;;;;;;;;;4.75;4.00;;;;;21.40;62.68;102080.38;5059546;28;45401;-59
2022/06/11 07:41:33;;;;;;;;;4.00;3.75;;;;;21.39;62.88;102076.00;5060694;28;45359;-58
2022/06/11 07:43:58;;;;;;;;;3.25;3.25;;;;;21.38;62.68;102076.97;5062704;28;46007;-58
2022/06/11 07:46:24;;;;;;;;;4.00;4.00;;;;;21.39;62.53;102076.84;5061536;28;45384;-59
2022/06/11 07:48:49;;;;;;;;;4.00;3.75;;;;;21.37;62.14;102076.13;5062428;28;45335;-58
2022/06/11 07:51:21;;;;;;;;;5.00;3.25;;;;;21.32;62.38;102077.47;5061956;28;45320;-50
2022/06/11 07:53:50;;;;;;;;;4.25;4.00;;;;;21.35;62.13;102083.44;5060657;28;45315;-55
2022/06/11 07:56:17;;;;;;;;;6.00;4.75;;;;;21.40;62.32;102073.19;5063740;28;45400;-53
2022/06/11 07:58:43;;;;;;;;;4.25;3.50;;;;;21.42;62.36;102073.91;5062386;28;45556;-54
2022/06/11 08:01:09;;;;;;;;;3.50;3.50;;;;;21.43;62.12;102080.13;5061980;28;45446;-55
2022/06/11 08:03:37;;;;;;;;;4.75;3.50;;;;;21.40;62.14;102075.00;5061226;28;45579;-55
2022/06/11 08:06:04;;;;;;;;;3.25;3.25;;;;;21.40;62.09;102081.22;5062357;28;45436;-55
2022/06/11 08:08:31;;;;;;;;;3.25;3.25;;;;;21.38;61.96;102080.50;5071231;28;45375;-50
2022/06/11 08:10:58;;;;;;;;;4.00;4.00;;;;;21.42;62.04;102075.75;5063544;28;45483;-53
2022/06/11 08:13:23;;;;;;;;;5.50;3.00;;;;;21.43;62.19;102072.09;5067443;27;45405;-53
2022/06/11 08:15:51;;;;;;;;;4.25;3.50;;;;;21.43;61.90;102077.44;5061328;28;45478;-53
2022/06/11 08:18:17;;;;;;;;;8.50;4.50;;;;;21.44;61.68;102076.47;5061976;28;45501;-50
2022/06/11 08:20:43;;;;;;;;;3.25;3.25;;;;;21.48;61.80;102075.22;5066896;28;45240;-53
2022/06/11 08:23:09;;;;;;;;;5.50;3.00;;;;;21.52;61.75;102079.34;5062008;28;45416;-52
2022/06/11 08:25:35;;;;;;;;;5.75;3.75;;;;;21.56;61.67;102079.94;5061012;28;45359;-51
2022/06/11 08:28:01;;;;;;;;;7.25;2.75;;;;;21.59;61.41;102077.84;5062101;28;45409;-52
2022/06/11 08:30:29;;;;;;;;;6.00;4.75;;;;;21.65;61.53;102085.38;5062100;28;45444;-53
2022/06/11 08:32:54;;;;;;;;;5.50;3.25;;;;;21.72;61.66;102085.69;5061860;28;45357;-51
2022/06/11 08:35:26;;;;;;;;;6.50;3.75;;;;;21.81;61.61;102081.41;5062186;28;45329;-50
2022/06/11 08:37:52;;;;;;;;;3.25;2.00;;;;;21.85;61.71;102089.03;5062161;28;45350;-53
2022/06/11 08:40:21;;;;;;;;;4.50;3.00;;;;;21.90;61.14;102085.97;5061975;28;45315;-51
2022/06/11 08:42:56;;;;;;;;;7.75;6.25;;;;;21.95;61.16;102086.41;5061787;28;45446;-53
2022/06/11 08:45:32;;;;;;;;;3.25;3.25;;;;;21.98;61.04;102078.13;5062095;28;45453;-53
2022/06/11 08:48:04;;;;;;;;;3.00;2.75;;;;;22.00;60.95;102081.50;5061913;28;45300;-51
2022/06/11 08:50:37;;;;;;;;;4.00;3.00;;;;;22.06;60.78;102075.63;5060501;28;45476;-50
2022/06/11 08:53:05;;;;;;;;;4.75;2.75;;;;;22.15;61.08;102072.16;5061812;28;45251;-51
2022/06/11 08:55:37;;;;;;;;;8.75;2.75;;;;;22.22;61.06;102067.13;5060134;28;45325;-49
2022/06/11 08:58:25;;;;;;;;;4.00;1.75;;;;;22.27;60.72;102070.22;5062029;28;45337;-52
2022/06/11 09:00:58;;;;;;;;;5.00;3.00;;;;;22.31;60.38;102065.44;5061804;28;45328;-52
2022/06/11 09:03:39;;;;;;;;;3.25;3.25;;;;;22.35;60.23;102065.03;5061383;28;45498;-52
2022/06/11 09:06:38;;;;;;;;;4.50;3.75;;;;;22.38;60.59;102058.56;5061600;28;45457;-54
2022/06/11 09:09:26;;;;;;;;;3.50;2.75;;;;;22.40;60.02;102062.81;5061671;28;45320;-51
2022/06/11 09:12:11;;;;;;;;;3.00;3.00;;;;;22.44;60.15;102056.19;5061420;28;45315;-53
2022/06/11 09:14:48;;;;;;;;;3.75;3.00;;;;;22.50;60.32;102055.63;5061388;28;45311;-53
2022/06/11 09:17:46;;;;;;;;;5.00;3.75;;;;;22.55;59.82;102057.91;5061339;28;45451;-53
2022/06/11 09:20:37;;;;;;;;;3.00;3.00;;;;;22.65;59.59;102045.34;5067362;28;45169;-53
2022/06/11 09:23:13;;;;;;;;;5.00;5.00;;;;;22.73;59.38;102047.34;5061564;28;45348;-53
2022/06/11 09:25:42;;;;;;;;;2.75;2.50;;;;;22.82;59.92;102049.19;5060913;28;45285;-50
2022/06/11 09:28:11;;;;;;;;;2.00;2.00;;;;;22.94;59.44;102056.19;5060719;28;45429;-51
2022/06/11 09:30:41;;;;;;;;;3.75;3.75;;;;;22.98;59.67;102046.84;5061303;28;45256;-53
2022/06/11 09:33:12;;;;;;;;;3.25;2.00;;;;;22.94;59.39;102045.44;5061057;28;45499;-52
2022/06/11 09:35:50;;;;;;;;;3.00;3.00;;;;;22.94;59.43;102055.34;5059676;28;48355;-53
2022/06/11 09:38:36;;;;;;;;;3.75;3.25;;;;;22.96;59.00;102048.84;5061084;28;45244;-54
2022/06/11 09:41:27;;;;;;;;;5.75;2.75;;;;;22.93;59.31;102043.75;5060818;28;45312;-50
2022/06/11 09:44:16;;;;;;;;;5.00;3.50;;;;;22.96;58.83;102056.03;5060985;28;45235;-53
2022/06/11 09:46:55;;;;;;;;;6.50;5.00;;;;;23.08;58.78;102052.25;5060867;28;45257;-50
2022/06/11 09:49:33;;;;;;;;;4.00;4.00;;;;;23.14;58.74;102057.03;5060716;28;45426;-52
2022/06/11 09:52:05;;;;;;;;;3.75;3.75;;;;;23.27;58.89;102048.72;5060872;28;45303;-53
2022/06/11 09:54:52;;;;;;;;;4.00;4.00;;;;;23.40;58.57;102052.81;5060963;28;45694;-53
2022/06/11 09:57:35;;;;;;;;;5.00;5.00;;;;;23.50;58.41;102047.41;5060460;28;45181;-51
2022/06/11 10:00:26;;;;;;;;;5.00;4.50;;;;;23.51;58.67;102049.13;5060356;28;45287;-54
2022/06/11 10:03:30;;;;;;;;;5.75;4.00;;;;;23.47;58.42;102042.34;5060263;28;45285;-54
2022/06/11 10:06:10;;;;;;;;;3.50;3.50;;;;;23.37;57.67;102046.84;5060886;28;45215;-52
2022/06/11 10:08:48;;;;;;;;;4.00;4.00;;;;;23.38;57.92;102046.75;5060268;28;45284;-50
2022/06/11 10:11:24;;;;;;;;;4.00;4.00;;;;;23.35;57.70;102046.16;5059034;28;45264;-52
2022/06/11 10:17:10;;;;;;;;;5.00;3.25;;;;;23.49;57.37;102053.78;5037575;28;45261;-54
2022/06/11 10:20:00;;;;;;;;;4.00;4.00;;;;;23.64;57.69;102041.63;5062419;28;45323;-52
2022/06/11 10:22:44;;;;;;;;;3.75;3.75;;;;;23.87;57.92;102049.38;5060205;28;45223;-54
2022/06/11 10:25:21;;;;;;;;;4.75;2.25;;;;;24.04;57.76;102048.63;5060552;28;45313;-51
2022/06/11 10:27:59;;;;;;;;;5.50;3.75;;;;;24.18;57.61;102045.44;5060490;28;45161;-54
2022/06/11 10:30:40;;;;;;;;;4.00;4.00;;;;;24.30;57.27;102047.94;5060334;28;45461;-55
2022/06/11 10:33:15;;;;;;;;;5.00;4.00;;;;;24.34;57.31;102047.53;5060277;28;45145;-52
2022/06/11 10:35:51;;;;;;;;;3.00;3.00;;;;;24.39;56.71;102039.00;5060515;28;45422;-51
2022/06/11 10:38:35;;;;;;;;;3.00;2.75;;;;;24.49;57.02;102037.13;5060487;28;45489;-54
2022/06/11 10:41:06;;;;;;;;;1.25;1.25;;;;;24.54;56.40;102031.25;5062726;28;45264;-53
2022/06/11 10:43:44;;;;;;;;;2.50;2.50;;;;;24.55;56.07;102028.41;5063777;28;45297;-54
2022/06/11 10:46:11;;;;;;;;;14.00;13.25;;;;;24.66;56.52;102039.00;5064113;28;45232;-53
2022/06/11 10:48:37;;;;;;;;;3.00;2.00;;;;;24.76;56.53;102039.78;5063674;28;45163;-53
2022/06/11 10:51:25;;;;;;;;;6.00;4.50;;;;;24.87;55.97;102048.63;5063648;28;45351;-53
2022/06/11 10:54:04;;;;;;;;;4.75;3.75;;;;;24.97;55.61;102039.50;5063432;28;45366;-51
2022/06/11 10:57:04;;;;;;;;;3.00;3.00;;;;;25.08;55.44;102038.44;5063456;28;45268;-54
2022/06/11 10:59:51;;;;;;;;;5.75;3.75;;;;;25.12;55.27;102034.44;5063988;28;45321;-53
2022/06/11 11:02:38;;;;;;;;;4.00;4.00;;;;;25.09;54.90;102032.03;5063252;28;46253;-51
2022/06/11 11:05:15;;;;;;;;;3.00;3.00;;;;;25.17;55.27;102025.88;5063419;28;45343;-52
2022/06/11 11:08:01;;;;;;;;;2.50;2.50;;;;;25.16;54.96;102034.97;5063769;28;45439;-52
2022/06/11 11:10:35;;;;;;;;;3.00;3.00;;;;;25.09;55.16;102029.34;5063124;28;45199;-52
2022/06/11 11:13:05;;;;;;;;;3.25;3.00;;;;;25.05;54.84;102034.22;5063220;28;45456;-50
2022/06/11 11:15:55;;;;;;;;;3.00;3.00;;;;;25.13;54.47;102025.34;5063195;28;45366;-49
2022/06/11 11:18:25;;;;;;;;;4.00;4.00;;;;;25.21;54.80;102024.59;5062950;28;45165;-51
2022/06/11 11:20:55;;;;;;;;;4.00;4.00;;;;;25.32;54.78;102025.16;5063845;28;45467;-53
2022/06/11 11:23:28;;;;;;;;;3.00;3.00;;;;;25.40;54.47;102020.84;5062423;28;45523;-51
2022/06/11 11:25:59;;;;;;;;;4.00;4.00;;;;;25.47;54.54;102030.84;5062467;28;45302;-54
2022/06/11 11:28:30;;;;;;;;;5.75;5.00;;;;;25.50;53.93;102027.84;5063132;28;45645;-53
2022/06/11 11:31:04;;;;;;;;;3.75;3.75;;;;;25.55;54.21;102022.81;5062882;28;45511;-53
2022/06/11 11:33:33;;;;;;;;;4.00;3.25;;;;;25.64;53.86;102025.56;5063134;28;45279;-53
2022/06/11 11:36:01;;;;;;;;;2.25;2.25;;;;;25.72;53.81;102020.25;5062920;28;45410;-54
2022/06/11 11:38:28;;;;;;;;;5.00;5.00;;;;;25.76;53.39;102025.19;5063243;28;45319;-53
2022/06/11 11:40:59;;;;;;;;;3.75;3.50;;;;;25.81;53.18;102020.16;5062480;28;45481;-50
2022/06/11 11:43:34;;;;;;;;;3.00;3.00;;;;;25.86;53.06;102019.69;5063079;28;45994;-50
2022/06/11 11:46:31;;;;;;;;;3.25;2.25;;;;;25.91;52.82;102022.75;5062721;28;45315;-53
2022/06/11 11:49:00;;;;;;;;;2.00;2.00;;;;;25.98;52.83;102020.25;5057969;28;45456;-54
2022/06/11 11:51:31;;;;;;;;;5.00;4.00;;;;;26.05;52.68;102021.28;5062882;28;45211;-52